首页
METAR-TAF:

METAR-TAF

机场 :

库尔卢 / 马纳利, 印度

纬度: 31-52-36N, 经度: 77-09-16E, 海拔: 1089米

当前天气观测

该预报发布于27分钟前的00:30 UTC
静风
温度 18°C
湿度 64%
气压 1009 hPa
能見度: 6000

METAR: VIBR 170030Z 00000KT 6000 NSC 18/11 Q1009

时间: 06:27 (00:57 UTC)

预报

该预报发布于1小时和57分钟前的23:00 UTC
预报有效从17日的 00点(UTC)到 17日的 09点(UTC)
风速5节,风向东北
能見度: 4000
成为
从 17日的 07点(UTC)到 17日的 09点(UTC)
风速8节,风向西
能見度: 6000
少量云层高于3000英尺

TAF: VIBR 162300Z 1700/1709 05005KT 4000 HZ NSC BECMG 1707/1709 27008KT 6000 FEW030

超过4000个机场的气象观测和天气预报(METAR&TAF报告)。

可查询的气象台以黄色和红色小点在地图上表示。

将鼠标移到小点上方,可查看气象台名称。

然后点击查看天气观测和预报。

如需切换地图:点击带黑十字的绿色按钮放大地图;点击带横线的绿色按钮缩小地图;或者点击绿色箭头查看邻近地区的地图。


METAR-TAF: